createdAt,value
2018-07-11T00:01:18.552Z,100.00
2018-07-11T00:03:49.444Z,100.00
2018-07-11T00:06:19.496Z,100.00
2018-07-11T00:08:48.231Z,100.00
2018-07-11T00:11:17.280Z,100.00
2018-07-11T00:13:46.839Z,100.00
2018-07-11T00:16:16.255Z,100.00
2018-07-11T00:18:45.042Z,100.00
2018-07-11T00:21:13.906Z,100.00
2018-07-11T00:23:42.667Z,100.00
2018-07-11T00:26:11.998Z,100.00
2018-07-11T00:28:40.775Z,100.00
2018-07-11T00:31:09.586Z,100.00
2018-07-11T00:33:38.357Z,100.00
2018-07-11T00:36:07.367Z,100.00
2018-07-11T00:38:36.387Z,100.00
2018-07-11T00:41:05.166Z,100.00
2018-07-11T00:43:35.334Z,100.00
2018-07-11T00:46:05.298Z,100.00
2018-07-11T00:48:34.531Z,100.00
2018-07-11T00:51:03.826Z,100.00
2018-07-11T00:53:35.335Z,100.00
2018-07-11T00:56:04.172Z,100.00
2018-07-11T00:58:35.691Z,100.00
2018-07-11T01:01:16.865Z,100.00
2018-07-11T01:03:57.648Z,100.00
2018-07-11T01:06:26.515Z,100.00
2018-07-11T01:08:58.295Z,100.00
2018-07-11T01:11:31.794Z,100.00
2018-07-11T01:14:00.634Z,100.00
2018-07-11T01:16:29.975Z,100.00
2018-07-11T01:19:01.614Z,100.00
2018-07-11T01:21:31.327Z,100.00
2018-07-11T01:24:01.163Z,100.00
2018-07-11T01:26:33.056Z,100.00
2018-07-11T01:29:01.994Z,100.00
2018-07-11T01:31:30.790Z,100.00
2018-07-11T01:33:59.980Z,100.00
2018-07-11T01:36:29.412Z,100.00
2018-07-11T01:38:59.007Z,100.00
2018-07-11T01:41:27.881Z,100.00
2018-07-11T01:43:56.783Z,100.00
2018-07-11T01:46:27.336Z,100.00
2018-07-11T01:48:56.193Z,100.00
2018-07-11T01:51:34.890Z,100.00
2018-07-11T01:54:03.759Z,100.00
2018-07-11T01:56:32.536Z,100.00
2018-07-11T01:59:01.327Z,100.00
2018-07-11T02:01:30.191Z,100.00
2018-07-11T02:03:59.347Z,100.00
2018-07-11T02:06:28.668Z,100.00
2018-07-11T02:08:57.491Z,100.00
2018-07-11T02:11:26.375Z,100.00
2018-07-11T02:13:55.221Z,100.00
2018-07-11T02:16:24.117Z,100.00
2018-07-11T02:18:52.989Z,100.00
2018-07-11T02:21:21.915Z,100.00
2018-07-11T02:23:50.834Z,100.00
2018-07-11T02:26:19.800Z,100.00
2018-07-11T02:28:49.103Z,100.00
2018-07-11T02:31:18.259Z,100.00
2018-07-11T02:33:47.256Z,100.00
2018-07-11T02:36:16.124Z,100.00
2018-07-11T02:38:44.958Z,100.00
2018-07-11T02:41:13.823Z,100.00
2018-07-11T02:43:42.629Z,100.00
2018-07-11T02:46:11.616Z,100.00
2018-07-11T02:48:40.443Z,100.00
2018-07-11T02:51:09.288Z,100.00
2018-07-11T02:53:38.156Z,100.00
2018-07-11T02:56:07.046Z,100.00
2018-07-11T02:58:35.841Z,100.00
2018-07-11T03:01:04.820Z,100.00
2018-07-11T03:03:33.622Z,100.00
2018-07-11T03:06:02.655Z,100.00
2018-07-11T03:08:39.680Z,100.00
2018-07-11T03:11:08.588Z,100.00
2018-07-11T03:13:38.016Z,100.00
2018-07-11T03:16:06.836Z,100.00
2018-07-11T03:18:35.731Z,100.00
2018-07-11T03:21:04.543Z,100.00
2018-07-11T03:23:33.410Z,100.00
2018-07-11T03:26:02.260Z,100.00
2018-07-11T03:28:30.984Z,100.00
2018-07-11T03:31:00.092Z,100.00
2018-07-11T03:33:28.933Z,100.00
2018-07-11T03:35:57.770Z,100.00
2018-07-11T03:38:26.640Z,100.00
2018-07-11T03:40:55.511Z,100.00
2018-07-11T03:43:24.279Z,100.00
2018-07-11T03:45:53.140Z,100.00
2018-07-11T03:48:21.973Z,100.00
2018-07-11T03:50:50.829Z,100.00
2018-07-11T03:53:19.665Z,100.00
2018-07-11T03:55:48.575Z,100.00
2018-07-11T03:58:17.351Z,100.00
2018-07-11T04:00:46.144Z,100.00
2018-07-11T04:03:14.971Z,100.00
2018-07-11T04:05:43.767Z,99.77
2018-07-11T04:08:12.517Z,98.61
2018-07-11T04:10:41.340Z,97.95
2018-07-11T04:13:17.184Z,97.35
2018-07-11T04:15:46.029Z,97.42
2018-07-11T04:18:33.238Z,96.95
2018-07-11T04:21:03.299Z,95.94
2018-07-11T04:23:32.328Z,96.34
2018-07-11T04:26:01.785Z,95.99
2018-07-11T04:28:31.226Z,95.38
2018-07-11T04:31:00.168Z,95.03
2018-07-11T04:33:28.997Z,95.34
2018-07-11T04:35:57.789Z,94.22
2018-07-11T04:38:26.959Z,94.97
2018-07-11T04:40:55.855Z,94.44
2018-07-11T04:43:26.946Z,93.79
2018-07-11T04:45:55.968Z,93.74
2018-07-11T04:48:24.761Z,92.89
2018-07-11T04:50:53.583Z,92.17
2018-07-11T04:53:27.634Z,92.57
2018-07-11T04:56:01.124Z,93.21
2018-07-11T04:58:30.627Z,92.15
2018-07-11T05:00:59.772Z,91.28
2018-07-11T05:03:28.941Z,90.90
2018-07-11T05:05:57.675Z,90.15
2018-07-11T05:08:26.960Z,89.71
2018-07-11T05:10:56.759Z,89.77
2018-07-11T05:13:26.351Z,88.68
2018-07-11T05:15:55.415Z,87.55
2018-07-11T05:18:24.190Z,86.12
2018-07-11T05:20:53.333Z,83.78
2018-07-11T05:23:22.319Z,81.67
2018-07-11T05:25:51.165Z,78.30
2018-07-11T05:28:19.910Z,77.29
2018-07-11T05:30:48.885Z,75.62
2018-07-11T05:33:17.718Z,75.47
2018-07-11T05:35:46.636Z,71.62
2018-07-11T05:38:15.459Z,71.11
2018-07-11T05:40:44.411Z,70.37
2018-07-11T05:43:13.186Z,70.14
2018-07-11T05:45:42.628Z,69.83
2018-07-11T05:48:11.705Z,68.37
2018-07-11T05:50:40.707Z,67.41
2018-07-11T05:53:09.575Z,65.57
2018-07-11T05:55:38.384Z,64.63
2018-07-11T05:58:07.201Z,62.32
2018-07-11T06:00:36.158Z,64.62
2018-07-11T06:03:05.085Z,62.82
2018-07-11T06:05:34.057Z,61.98
2018-07-11T06:08:02.816Z,61.73
2018-07-11T06:10:31.544Z,61.37
2018-07-11T06:13:00.691Z,62.45
2018-07-11T06:15:29.507Z,59.87
2018-07-11T06:17:58.480Z,59.46
2018-07-11T06:20:27.584Z,59.56
2018-07-11T06:22:56.435Z,57.94
2018-07-11T06:25:25.375Z,58.05
2018-07-11T06:27:54.200Z,57.61
2018-07-11T06:30:23.195Z,57.87
2018-07-11T06:32:52.565Z,58.40
2018-07-11T06:35:22.212Z,57.63
2018-07-11T06:37:51.142Z,57.83
2018-07-11T06:40:19.877Z,59.95
2018-07-11T06:42:48.644Z,58.77
2018-07-11T06:45:17.460Z,57.88
2018-07-11T06:47:46.280Z,58.79
2018-07-11T06:50:15.981Z,57.16
2018-07-11T06:52:44.790Z,57.78
2018-07-11T06:55:13.549Z,58.28
2018-07-11T06:57:42.337Z,55.64
2018-07-11T07:00:11.432Z,56.87
2018-07-11T07:02:40.240Z,55.79
2018-07-11T07:05:09.020Z,56.00
2018-07-11T07:07:37.799Z,55.75
2018-07-11T07:10:06.693Z,55.61
2018-07-11T07:12:35.484Z,53.50
2018-07-11T07:15:04.402Z,52.61
2018-07-11T07:17:33.619Z,52.55
2018-07-11T07:20:02.651Z,54.25
2018-07-11T07:22:31.440Z,52.79
2018-07-11T07:25:00.334Z,53.13
2018-07-11T07:27:29.315Z,52.70
2018-07-11T07:29:58.151Z,52.26
2018-07-11T07:32:27.053Z,50.87
2018-07-11T07:34:55.969Z,51.91
2018-07-11T07:37:24.772Z,48.72
2018-07-11T07:39:53.503Z,48.46
2018-07-11T07:42:22.334Z,46.84
2018-07-11T07:44:51.457Z,48.04
2018-07-11T07:47:25.803Z,47.70
2018-07-11T07:49:54.839Z,45.64
2018-07-11T07:52:24.037Z,47.61
2018-07-11T07:54:52.831Z,47.42
2018-07-11T07:57:22.038Z,48.67
2018-07-11T07:59:51.272Z,48.12
2018-07-11T08:02:22.131Z,46.14
2018-07-11T08:04:50.918Z,46.22
2018-07-11T08:07:20.558Z,44.75
2018-07-11T08:09:49.479Z,44.00
2018-07-11T08:12:18.459Z,44.54
2018-07-11T08:14:47.359Z,47.23
2018-07-11T08:17:16.173Z,45.92
2018-07-11T08:19:45.165Z,46.99
2018-07-11T08:22:25.057Z,47.24
2018-07-11T08:25:04.962Z,46.21
2018-07-11T08:28:00.919Z,44.78
2018-07-11T08:31:38.916Z,46.10
2018-07-11T08:34:18.836Z,45.25
2018-07-11T08:37:58.873Z,43.31
2018-07-11T08:41:41.843Z,45.89
2018-07-11T08:46:36.038Z,44.82
2018-07-11T08:50:19.665Z,45.03
2018-07-11T08:53:13.918Z,46.18
2018-07-11T08:57:57.676Z,43.55
2018-07-11T09:00:42.843Z,39.96
2018-07-11T09:05:31.041Z,40.88
2018-07-11T09:10:44.347Z,38.94
2018-07-11T09:15:36.866Z,38.50
2018-07-11T09:18:30.173Z,38.70
2018-07-11T09:24:10.537Z,37.64
2018-07-11T09:26:39.190Z,36.78
2018-07-11T09:29:07.875Z,36.44
2018-07-11T09:31:36.631Z,36.30
2018-07-11T09:34:05.730Z,37.36
2018-07-11T09:36:34.450Z,37.02
2018-07-11T09:39:03.323Z,36.22
2018-07-11T09:41:32.374Z,36.78
2018-07-11T09:44:01.152Z,35.69
2018-07-11T09:46:30.181Z,36.41
2018-07-11T09:48:58.962Z,37.05
2018-07-11T09:51:27.772Z,35.91
2018-07-11T09:53:56.707Z,36.13
2018-07-11T09:56:26.044Z,38.29
2018-07-11T09:58:54.947Z,36.83
2018-07-11T10:01:25.817Z,36.34
2018-07-11T10:03:55.875Z,35.51
2018-07-11T10:06:25.855Z,36.18
2018-07-11T10:08:54.943Z,36.43
2018-07-11T10:11:24.111Z,36.22
2018-07-11T10:13:52.932Z,34.87
2018-07-11T10:16:21.896Z,35.39
2018-07-11T10:19:04.301Z,34.71
2018-07-11T10:21:34.170Z,35.00
2018-07-11T10:24:03.137Z,33.03
2018-07-11T10:26:32.085Z,33.15
2018-07-11T10:29:00.928Z,32.70
2018-07-11T10:31:30.260Z,33.32
2018-07-11T10:33:59.163Z,34.88
2018-07-11T10:36:27.904Z,33.20
2018-07-11T10:38:56.929Z,34.82
2018-07-11T10:41:25.617Z,34.39
2018-07-11T10:43:54.620Z,33.67
2018-07-11T10:46:23.388Z,32.76
2018-07-11T10:48:52.582Z,32.00
2018-07-11T10:51:21.510Z,32.17
2018-07-11T10:53:50.520Z,34.79
2018-07-11T10:56:19.295Z,33.94
2018-07-11T10:58:48.095Z,33.45
2018-07-11T11:01:18.921Z,33.92
2018-07-11T11:03:48.666Z,34.72
2018-07-11T11:06:17.482Z,35.86
2018-07-11T11:08:46.504Z,33.95
2018-07-11T11:11:15.607Z,34.47
2018-07-11T11:13:44.347Z,33.38
2018-07-11T11:16:13.123Z,32.88
2018-07-11T11:18:41.923Z,33.19
2018-07-11T11:21:10.671Z,32.92
2018-07-11T11:23:39.612Z,34.65
2018-07-11T11:26:08.647Z,33.97
2018-07-11T11:28:37.311Z,34.00
2018-07-11T11:31:06.355Z,34.70
2018-07-11T11:33:35.391Z,36.07
2018-07-11T11:36:04.294Z,34.78
2018-07-11T11:38:33.321Z,34.21
2018-07-11T11:41:02.158Z,34.73
2018-07-11T11:43:30.982Z,34.96
2018-07-11T11:45:59.675Z,34.66
2018-07-11T11:48:28.350Z,33.82
2018-07-11T11:50:57.659Z,32.90
2018-07-11T11:53:26.398Z,31.24
2018-07-11T11:55:55.605Z,32.79
2018-07-11T11:58:24.347Z,33.59
2018-07-11T12:00:53.083Z,32.24
2018-07-11T12:03:22.061Z,31.77
2018-07-11T12:05:50.860Z,32.00
2018-07-11T12:08:19.665Z,32.31
2018-07-11T12:10:48.620Z,32.59
2018-07-11T12:13:17.657Z,34.87
2018-07-11T12:15:46.393Z,33.89
2018-07-11T12:18:15.159Z,35.23
2018-07-11T12:20:44.440Z,35.70
2018-07-11T12:23:13.266Z,36.56
2018-07-11T12:26:05.740Z,37.17
2018-07-11T12:28:34.539Z,35.66
2018-07-11T12:31:03.690Z,35.73
2018-07-11T12:33:32.913Z,35.25
2018-07-11T12:36:02.071Z,36.18
2018-07-11T12:38:31.128Z,36.67
2018-07-11T12:41:00.508Z,35.87
2018-07-11T12:43:29.318Z,36.95
2018-07-11T12:45:58.502Z,36.29
2018-07-11T12:48:32.834Z,35.20
2018-07-11T12:51:01.634Z,35.75
2018-07-11T12:53:30.345Z,35.96
2018-07-11T12:55:59.296Z,36.49
2018-07-11T12:58:28.178Z,36.89
2018-07-11T13:00:57.103Z,35.75
2018-07-11T13:03:26.283Z,35.96
2018-07-11T13:05:55.145Z,36.91
2018-07-11T13:08:23.968Z,36.20
2018-07-11T13:10:52.688Z,37.52
2018-07-11T13:13:21.735Z,37.78
2018-07-11T13:15:50.465Z,36.69
2018-07-11T13:18:19.220Z,36.97
2018-07-11T13:20:47.923Z,36.94
2018-07-11T13:23:17.147Z,36.29
2018-07-11T13:25:46.059Z,33.93
2018-07-11T13:28:14.797Z,33.06
2018-07-11T13:30:43.674Z,32.66
2018-07-11T13:33:12.326Z,31.56
2018-07-11T13:35:41.400Z,31.29
2018-07-11T13:38:13.424Z,33.18
2018-07-11T13:40:42.427Z,33.71
2018-07-11T13:43:12.251Z,35.20
2018-07-11T13:45:41.112Z,38.31
2018-07-11T13:48:09.877Z,38.76
2018-07-11T13:50:38.639Z,39.68
2018-07-11T13:53:07.660Z,39.31
2018-07-11T13:55:36.735Z,40.21
2018-07-11T13:58:05.567Z,39.57
2018-07-11T14:00:34.602Z,38.09
2018-07-11T14:03:03.786Z,38.89
2018-07-11T14:05:32.780Z,38.75
2018-07-11T14:08:01.527Z,36.80
2018-07-11T14:10:31.335Z,37.96
2018-07-11T14:13:00.434Z,38.39
2018-07-11T14:15:29.211Z,38.39
2018-07-11T14:17:57.894Z,38.54
2018-07-11T14:20:26.780Z,37.53
2018-07-11T14:22:57.364Z,37.48
2018-07-11T14:25:26.162Z,38.14
2018-07-11T14:27:54.959Z,37.62
2018-07-11T14:30:25.067Z,36.20
2018-07-11T14:33:01.253Z,37.43
2018-07-11T14:35:29.956Z,37.49
2018-07-11T14:37:58.671Z,38.63
2018-07-11T14:40:27.411Z,37.60
2018-07-11T14:42:57.179Z,38.27
2018-07-11T14:45:26.879Z,37.56
2018-07-11T14:47:57.823Z,39.16
2018-07-11T14:50:26.635Z,40.74
2018-07-11T14:52:55.446Z,41.63
2018-07-11T14:55:24.190Z,42.55
2018-07-11T14:57:52.956Z,42.82
2018-07-11T15:00:21.727Z,42.96
2018-07-11T15:02:50.639Z,43.08
2018-07-11T15:05:19.406Z,44.60
2018-07-11T15:07:48.810Z,45.68
2018-07-11T15:10:17.775Z,45.79
2018-07-11T15:12:46.498Z,46.09
2018-07-11T15:15:15.119Z,46.25
2018-07-11T15:17:43.885Z,45.24
2018-07-11T15:20:12.635Z,46.00
2018-07-11T15:22:41.524Z,47.06
2018-07-11T15:25:10.302Z,47.56
2018-07-11T15:27:39.079Z,46.54
2018-07-11T15:30:08.075Z,47.62
2018-07-11T15:32:36.851Z,47.58
2018-07-11T15:35:05.948Z,47.51
2018-07-11T15:37:34.891Z,47.46
2018-07-11T15:40:04.524Z,46.99
2018-07-11T15:42:33.316Z,48.11
2018-07-11T15:45:02.106Z,47.35
2018-07-11T15:47:31.125Z,48.30
2018-07-11T15:50:01.787Z,48.45
2018-07-11T15:52:33.751Z,47.99
2018-07-11T15:55:04.851Z,48.35
2018-07-11T15:57:38.764Z,47.10
2018-07-11T16:00:12.407Z,47.74
2018-07-11T16:02:44.781Z,48.82
2018-07-11T16:05:17.978Z,49.13
2018-07-11T16:07:48.944Z,48.36
2018-07-11T16:10:19.092Z,48.02
2018-07-11T16:12:47.842Z,48.76
2018-07-11T16:15:16.612Z,49.40
2018-07-11T16:17:45.339Z,49.69
2018-07-11T16:20:14.271Z,49.43
2018-07-11T16:22:43.100Z,49.32
2018-07-11T16:25:11.998Z,49.65
2018-07-11T16:27:40.876Z,49.31
2018-07-11T16:30:11.361Z,50.40
2018-07-11T16:32:40.134Z,50.78
2018-07-11T16:35:10.233Z,51.06
2018-07-11T16:37:39.155Z,51.74
2018-07-11T16:40:08.439Z,51.35
2018-07-11T16:42:37.381Z,51.04
2018-07-11T16:45:06.564Z,51.33
2018-07-11T16:47:35.515Z,50.97
2018-07-11T16:50:04.379Z,51.24
2018-07-11T16:52:33.189Z,51.19
2018-07-11T16:55:02.730Z,51.13
2018-07-11T16:57:49.436Z,51.94
2018-07-11T17:00:40.541Z,52.89
2018-07-11T17:03:14.070Z,52.25
2018-07-11T17:05:48.906Z,52.29
2018-07-11T17:08:18.211Z,52.62
2018-07-11T17:10:50.765Z,52.14
2018-07-11T17:13:23.296Z,51.93
2018-07-11T17:15:55.481Z,52.22
2018-07-11T17:18:33.741Z,52.49
2018-07-11T17:21:06.627Z,53.34
2018-07-11T17:23:36.369Z,54.14
2018-07-11T17:26:05.212Z,55.59
2018-07-11T17:28:33.962Z,55.95
2018-07-11T17:31:02.801Z,56.01
2018-07-11T17:33:31.564Z,57.35
2018-07-11T17:36:00.433Z,57.69
2018-07-11T17:38:31.472Z,57.13
2018-07-11T17:41:02.243Z,58.13
2018-07-11T17:43:34.015Z,58.90
2018-07-11T17:46:04.270Z,58.54
2018-07-11T17:48:45.435Z,59.48
2018-07-11T17:52:18.389Z,59.70
2018-07-11T17:55:10.063Z,59.23
2018-07-11T17:57:49.029Z,59.90
2018-07-11T18:00:42.190Z,60.03
2018-07-11T18:03:24.868Z,59.83
2018-07-11T18:06:01.404Z,59.89
2018-07-11T18:08:49.792Z,61.36
2018-07-11T18:11:18.583Z,61.77
2018-07-11T18:13:52.027Z,62.39
2018-07-11T18:16:59.580Z,63.04
2018-07-11T18:21:41.889Z,63.76
2018-07-11T18:24:18.667Z,63.47
2018-07-11T18:30:01.500Z,62.98
2018-07-11T18:32:45.081Z,63.71
2018-07-11T18:35:27.315Z,63.28
2018-07-11T18:37:59.463Z,64.07
2018-07-11T18:40:46.122Z,64.94
2018-07-11T18:43:27.422Z,64.43
2018-07-11T18:46:06.133Z,65.46
2018-07-11T18:48:44.542Z,65.57
2018-07-11T18:51:36.938Z,64.88
2018-07-11T18:54:11.006Z,66.16
2018-07-11T18:56:48.935Z,66.85
2018-07-11T18:59:26.070Z,67.24
2018-07-11T19:02:19.189Z,66.76
2018-07-11T19:05:01.699Z,67.94
2018-07-11T19:07:40.518Z,68.46
2018-07-11T19:10:09.287Z,68.72
2018-07-11T19:12:57.799Z,68.35
2018-07-11T19:15:36.634Z,69.21
2018-07-11T19:18:42.527Z,69.88
2018-07-11T19:21:13.671Z,70.07
2018-07-11T19:24:06.411Z,68.95
2018-07-11T19:26:46.666Z,68.90
2018-07-11T19:30:24.163Z,68.18
2018-07-11T19:33:03.866Z,69.33
2018-07-11T19:35:50.942Z,70.29
2018-07-11T19:38:41.866Z,69.74
2018-07-11T19:41:20.254Z,70.27
2018-07-11T19:45:11.345Z,70.21
2018-07-11T19:49:57.171Z,71.11
2018-07-11T19:52:35.715Z,70.97
2018-07-11T19:55:17.450Z,71.40
2018-07-11T19:57:46.182Z,71.57
2018-07-11T20:00:14.914Z,71.50
2018-07-11T20:02:43.708Z,72.77
2018-07-11T20:05:12.467Z,72.12
2018-07-11T20:07:41.191Z,72.21
2018-07-11T20:10:09.894Z,73.43
2018-07-11T20:12:38.666Z,73.29
2018-07-11T20:15:07.439Z,72.59
2018-07-11T20:17:36.079Z,73.54
2018-07-11T20:20:04.875Z,72.51
2018-07-11T20:22:33.589Z,72.32
2018-07-11T20:25:02.240Z,72.69
2018-07-11T20:27:31.076Z,72.61
2018-07-11T20:29:59.842Z,72.26
2018-07-11T20:32:28.467Z,73.41
2018-07-11T20:34:57.179Z,74.31
2018-07-11T20:37:26.083Z,73.80
2018-07-11T20:39:54.763Z,73.33
2018-07-11T20:42:23.735Z,73.11
2018-07-11T20:44:52.529Z,72.81
2018-07-11T20:47:21.235Z,72.79
2018-07-11T20:49:49.985Z,72.36
2018-07-11T20:52:18.626Z,71.93
2018-07-11T20:54:47.245Z,71.51
2018-07-11T20:57:15.896Z,71.07
2018-07-11T20:59:55.621Z,70.68
2018-07-11T21:02:35.389Z,71.77
2018-07-11T21:06:18.458Z,72.08
2018-07-11T21:11:01.671Z,71.73
2018-07-11T21:14:01.051Z,72.02
2018-07-11T21:18:49.264Z,72.15
2018-07-11T21:21:25.308Z,72.80
2018-07-11T21:24:09.587Z,72.19
2018-07-11T21:26:39.061Z,73.40
2018-07-11T21:29:12.934Z,73.04
2018-07-11T21:31:48.900Z,73.84
2018-07-11T21:37:20.779Z,74.09
2018-07-11T21:40:00.767Z,75.40
2018-07-11T21:43:00.298Z,74.97
2018-07-11T21:45:45.997Z,75.54
2018-07-11T21:48:28.120Z,75.80
2018-07-11T21:50:57.188Z,76.01
2018-07-11T21:53:26.175Z,76.50
2018-07-11T21:55:55.102Z,77.15
2018-07-11T21:58:24.675Z,77.12
2018-07-11T22:00:54.230Z,78.15
2018-07-11T22:03:23.154Z,78.25
2018-07-11T22:05:53.087Z,78.76
2018-07-11T22:08:22.131Z,80.32
2018-07-11T22:10:51.144Z,82.09
2018-07-11T22:13:20.472Z,83.20
2018-07-11T22:15:49.550Z,83.24
2018-07-11T22:18:31.570Z,82.59
2018-07-11T22:20:59.414Z,82.77
2018-07-11T22:23:27.071Z,82.88
2018-07-11T22:25:54.572Z,82.51
2018-07-11T22:28:22.619Z,83.50
2018-07-11T22:30:50.120Z,83.53
2018-07-11T22:33:18.243Z,83.30
2018-07-11T22:35:47.045Z,83.70
2018-07-11T22:38:15.238Z,83.69
2018-07-11T22:40:43.876Z,84.20
2018-07-11T22:43:12.216Z,83.88
2018-07-11T22:45:39.949Z,83.50
2018-07-11T22:48:07.594Z,83.71
2018-07-11T22:50:36.120Z,83.75
2018-07-11T22:53:03.594Z,84.17
2018-07-11T22:55:31.102Z,85.23
2018-07-11T22:57:58.746Z,85.23
2018-07-11T23:00:27.453Z,86.25
2018-07-11T23:02:55.158Z,86.18
2018-07-11T23:05:22.680Z,86.19
2018-07-11T23:07:50.868Z,86.38
2018-07-11T23:10:18.607Z,86.95
2018-07-11T23:12:48.924Z,86.60
2018-07-11T23:15:16.412Z,86.07
2018-07-11T23:17:43.952Z,86.27
2018-07-11T23:20:11.680Z,86.04
2018-07-11T23:22:39.165Z,87.12
2018-07-11T23:25:06.654Z,88.59
2018-07-11T23:27:34.271Z,89.39
2018-07-11T23:30:04.924Z,89.41
2018-07-11T23:32:32.400Z,88.98
2018-07-11T23:35:01.155Z,89.37
2018-07-11T23:37:28.811Z,88.87
2018-07-11T23:39:56.355Z,87.82
2018-07-11T23:42:23.848Z,88.62
2018-07-11T23:44:52.042Z,89.32
2018-07-11T23:47:19.541Z,90.15
2018-07-11T23:49:47.439Z,89.91
2018-07-11T23:52:16.399Z,90.08
2018-07-11T23:54:43.963Z,90.17
2018-07-11T23:57:11.551Z,89.83
2018-07-11T23:59:40.295Z,90.42
